Latest Weather Observations for Dubbo

IDN60801

Issued at 8:03 pm EST Friday 29 July 2016 (issued every 30 minutes, with the page automatically refreshed every 10 minutes)

About weather observations | Map of weather stations | Latest weather observations for NSW | Other Formats
Station Details ID: 065070 Name: DUBBO AIRPORT AWS Lat: -32.22 Lon: 148.58 Height: 284.0 m
Data from the previous 72 hours. | See also: Recent months at Dubbo
Date/Time
EST
Temp
°C
App
Temp
°C
Dew
Point
°C
Rel
Hum
%
Delta-T
°C
Wind Press
QNH
hPa
Press
MSL
hPa
Rain since
9am
mm
Dir  Spd
km/h
Gust
km/h
Spd
kts
Gust
kts
29/08:00pm 8.3 4.0 3.4 71 2.1 S 15 22 8 12 1024.4 1024.8 0.0
29/07:30pm 8.6 4.0 3.6 71 2.2 S 17 26 9 14 1024.2 1024.6 0.0
29/07:00pm 8.6 4.7 3.6 71 2.2 S 13 20 7 11 1024.0 1024.4 0.0
29/06:30pm 8.8 4.2 3.6 70 2.3 S 17 24 9 13 1023.7 1024.1 0.0
29/06:00pm 8.9 5.0 3.5 69 2.4 SSW 13 19 7 10 1023.5 1023.8 0.0
29/05:30pm 9.1 5.0 4.1 71 2.2 SSW 15 19 8 10 1023.4 1023.7 0.0
29/05:00pm 9.5 5.4 4.1 69 2.4 SSW 15 22 8 12 1023.1 1023.5 0.0
29/04:30pm 10.1 5.3 4.9 70 2.4 SSW 19 24 10 13 1022.9 1023.3 0.0
29/04:00pm 10.7 5.8 5.0 68 2.6 SSW 20 24 11 13 1022.8 1023.2 0.0
29/03:30pm 11.2 8.3 4.7 64 3.0 S 9 17 5 9 1022.7 1023.1 0.0
29/03:00pm 11.1 7.5 5.0 66 2.8 S 13 20 7 11 1023.0 1023.4 0.0
29/02:30pm 11.0 7.3 4.7 65 2.9 S 13 22 7 12 1023.0 1023.4 0.0
29/02:00pm 11.1 7.4 4.6 64 3.0 SSW 13 20 7 11 1023.2 1023.6 0.0
29/01:30pm 10.7 6.2 4.4 65 2.9 SW 17 24 9 13 1023.6 1023.9 0.0
29/01:00pm 10.9 6.4 4.4 64 2.9 SW 17 24 9 13 1024.0 1024.4 0.0
29/12:30pm 10.9 6.8 4.1 63 3.1 SSW 15 20 8 11 1024.4 1024.8 0.0
29/12:00pm 10.8 6.4 4.7 66 2.8 SW 17 30 9 16 1025.0 1025.4 0.0
29/11:30am 10.1 6.5 4.9 70 2.4 SSW 13 20 7 11 1025.5 1025.9 0.0
29/11:00am 9.8 5.7 4.2 68 2.5 SSE 15 22 8 12 1025.9 1026.3 0.0
29/10:30am 9.2 5.5 4.2 71 2.2 S 13 20 7 11 1026.3 1026.7 0.0
29/10:00am 8.2 3.2 3.5 72 2.0 S 19 24 10 13 1026.6 1027.1 0.0
29/09:30am 8.1 3.5 3.8 74 1.9 SSE 17 20 9 11 1026.8 1027.3 0.0
29/09:00am 7.5 2.8 3.4 75 1.8 S 17 26 9 14 1026.6 1027.1 0.0
29/08:30am 7.3 2.6 3.2 75 1.8 SSW 17 20 9 11 1026.6 1027.1 0.0
29/08:00am 7.0 3.0 2.9 75 1.7 SSE 13 20 7 11 1026.6 1027.1 0.0
29/07:30am 6.7 2.7 3.0 77 1.6 SSE 13 24 7 13 1026.4 1026.8 0.0
29/07:00am 6.6 1.9 2.9 77 1.6 SSE 17 24 9 13 1026.0 1026.4 0.0
29/06:30am 6.7 2.0 3.0 77 1.6 S 17 26 9 14 1025.7 1026.1 0.0
29/06:00am 6.8 2.5 3.1 77 1.6 SSE 15 20 8 11 1025.6 1026.0 0.0
29/05:30am 6.9 2.6 3.0 76 1.7 SSE 15 24 8 13 1025.5 1025.9 0.0
29/05:00am 7.2 3.7 3.4 77 1.6 SE 11 15 6 8 1025.2 1025.6 0.0
29/04:30am 7.4 4.7 3.8 78 1.6 S 7 11 4 6 1025.0 1025.4 0.0
29/04:00am 7.5 4.4 3.6 76 1.7 SSE 9 15 5 8 1024.8 1025.2 0.0
29/03:30am 7.7 4.2 3.7 76 1.7 SSE 11 15 6 8 1024.8 1025.2 0.0
29/03:00am 7.6 4.5 3.8 77 1.6 SSE 9 13 5 7 1025.0 1025.4 0.0
29/02:30am 7.9 4.0 3.6 74 1.9 SSW 13 19 7 10 1025.1 1025.5 0.0
29/02:00am 8.0 4.2 3.7 74 1.9 S 13 20 7 11 1025.4 1025.8 0.0
29/01:30am 7.6 4.0 3.1 73 1.9 SSE 11 17 6 9 1025.5 1025.9 0.0
29/01:00am 8.4 3.4 3.7 72 2.1 SSE 19 26 10 14 1025.6 1026.0 0.0
29/12:30am 8.5 3.9 3.6 71 2.1 S 17 24 9 13 1025.8 1026.2 0.0
29/12:00am 8.7 4.1 3.7 71 2.2 S 17 24 9 13 1026.0 1026.4 0.0
 
Date/Time
EST
Temp
°C
App
Temp
°C
Dew
Point
°C
Rel
Hum
%
Delta-T
°C
Wind Press
QNH
hPa
Press
MSL
hPa
Rain since
9am
mm
Dir  Spd
km/h
Gust
km/h
Spd
kts
Gust
kts
28/11:30pm 9.1 5.0 4.1 71 2.2 SSE 15 20 8 11 1026.2 1026.6 0.0
28/11:00pm 9.2 4.7 4.0 70 2.3 SSE 17 20 9 11 1026.4 1026.8 0.0
28/10:30pm 9.1 5.6 3.7 69 2.4 S 11 15 6 8 1026.5 1027.0 0.0
28/10:00pm 9.3 4.3 3.5 67 2.5 S 19 26 10 14 1026.6 1027.1 0.0
28/09:30pm 9.5 4.3 3.7 67 2.6 S 20 28 11 15 1026.7 1027.2 0.0
28/09:00pm 9.4 5.2 3.8 68 2.5 S 15 20 8 11 1026.6 1027.1 0.0
28/08:30pm 9.3 4.7 3.9 69 2.4 S 17 26 9 14 1026.7 1027.2 0.0
28/08:00pm 9.4 5.7 4.4 71 2.2 S 13 20 7 11 1026.5 1027.0 0.0
28/07:30pm 9.4 4.9 4.4 71 2.3 SSW 17 20 9 11 1026.6 1027.1 0.0
28/07:00pm 9.0 5.4 5.0 76 1.8 S 13 20 7 11 1026.6 1027.1 0.0
28/06:30pm 7.9 3.8 4.3 78 1.6 S 15 19 8 10 1026.2 1026.6 0.0
28/06:00pm 7.8 4.1 4.6 80 1.4 SSW 13 17 7 9 1026.1 1026.5 0.0
28/05:30pm 8.8 4.4 4.8 76 1.8 SSW 17 22 9 12 1026.0 1026.4 0.0
28/05:00pm 9.9 5.5 4.9 71 2.3 SSW 17 24 9 13 1025.8 1026.2 0.0
28/04:30pm 11.4 6.6 5.5 67 2.8 SSW 20 26 11 14 1025.7 1026.1 0.0
28/04:00pm 12.1 7.3 5.5 64 3.1 SSW 20 30 11 16 1025.7 1026.1 0.0
28/03:30pm 12.9 7.7 5.3 60 3.6 SSW 22 30 12 16 1025.7 1026.1 0.0
28/03:00pm 13.9 9.3 5.8 58 3.9 SSW 19 26 10 14 1025.5 1025.9 0.0
28/02:30pm 13.5 9.1 4.9 56 4.0 SW 17 22 9 12 1025.5 1025.9 0.0
28/02:00pm 13.2 9.6 4.9 57 3.9 SSW 13 22 7 12 1025.5 1025.9 0.0
28/01:30pm 13.1 9.6 5.3 59 3.7 SSW 13 26 7 14 1025.7 1026.1 0.0
28/01:00pm 12.3 9.0 4.3 58 3.7 SW 11 17 6 9 1026.1 1026.5 0.0
28/12:30pm 12.5 10.0 4.5 58 3.7 WSW 7 11 4 6 1026.5 1027.0 0.0
28/12:00pm 12.0 9.5 5.0 62 3.2 SW 7 15 4 8 1026.8 1027.3 0.0
28/11:30am 11.7 7.3 4.9 63 3.2 SSW 17 20 9 11 1027.6 1028.0 0.0
28/11:00am 11.2 7.5 4.2 62 3.2 S 13 20 7 11 1027.9 1028.3 0.0
28/10:30am 10.7 5.8 4.2 64 2.9 SSE 19 24 10 13 1027.9 1028.3 0.0
28/10:00am 10.3 5.9 4.9 69 2.5 SSE 17 24 9 13 1028.0 1028.4 0.0
28/09:30am 9.7 5.7 5.1 73 2.1 S 15 20 8 11 1028.0 1028.4 0.0
28/09:00am 8.9 5.4 5.6 80 1.5 S 13 19 7 10 1027.6 1028.0 0.0
28/08:30am 8.1 4.6 5.6 84 1.1 S 13 19 7 10 1027.6 1028.0 0.0
28/08:00am 6.9 4.2 5.4 90 0.7 S 9 11 5 6 1027.4 1027.8 0.0
28/07:30am 5.0 3.8 4.6 97 0.2 CALM 0 6 0 3 1027.1 1027.5 0.0
28/07:00am 3.9 0.7 3.2 95 0.3 SSW 9 11 5 6 1026.7 1027.2 0.0
28/06:34am 3.9 0.7 3.3 96 0.2 WSW 9 11 5 6 1025.9 1026.3 0.0
28/06:30am 4.3 1.3 3.9 97 0.2 WSW 9 11 5 6 1025.8 1026.2 0.0
28/06:15am 3.7 0.1 2.7 93 0.4 WSW 11 13 6 7 1025.4 1025.8 0.0
28/06:00am 5.6 3.3 4.9 95 0.3 SW 6 7 3 4 1025.2 1025.6 0.0
28/05:30am 6.1 2.8 4.7 91 0.6 SSW 11 15 6 8 1024.9 1025.3 0.0
28/05:06am 7.2 3.9 6.5 95 0.3 SSW 13 24 7 13 1024.7 1025.1 0.0
28/05:00am 7.1 4.2 6.4 95 0.3 SSW 11 15 6 8 1024.7 1025.1 0.0
28/04:42am 7.2 3.9 6.5 95 0.3 SSW 13 17 7 9 1024.6 1025.0 0.0
28/04:31am 7.3 3.7 6.7 96 0.3 SSW 15 20 8 11 1024.8 1025.2 0.0
28/04:30am 7.3 3.7 6.7 96 0.3 SSW 15 20 8 11 1024.8 1025.2 0.0
28/04:10am 6.2 3.1 5.6 96 0.3 SSW 11 15 6 8 1024.8 1025.2 0.0
28/04:00am 5.4 2.5 4.5 94 0.4 SSW 9 13 5 7 1024.8 1025.2 0.0
28/03:31am 5.9 2.3 5.2 95 0.3 SSW 13 17 7 9 1024.8 1025.2 0.0
28/03:30am 6.0 2.5 5.3 95 0.3 SSW 13 17 7 9 1024.8 1025.2 0.0
28/03:17am 6.3 2.8 5.6 95 0.3 SSW 13 15 7 8 1025.0 1025.4 0.0
28/03:00am 6.9 4.0 6.3 96 0.3 SW 11 15 6 8 1025.0 1025.4 0.0
28/02:30am 6.7 3.3 6.0 95 0.3 SSW 13 17 7 9 1025.1 1025.5 0.0
28/02:23am 7.0 3.3 6.3 95 0.3 SSW 15 17 8 9 1025.1 1025.5 0.0
28/02:00am 6.6 2.8 5.9 95 0.3 SSW 15 19 8 10 1025.1 1025.5 0.0
28/01:36am 6.2 2.6 5.2 93 0.4 SSW 13 17 7 9 1025.2 1025.6 0.0
28/01:31am 6.0 2.4 5.0 93 0.4 SSW 13 17 7 9 1025.2 1025.6 0.0
28/01:30am 5.9 2.2 4.7 92 0.5 SW 13 17 7 9 1025.2 1025.6 0.0
28/01:00am 6.6 4.3 5.6 93 0.4 SSW 7 9 4 5 1024.9 1025.3 0.0
28/12:45am 6.1 3.7 5.1 93 0.4 S 7 9 4 5 1024.8 1025.2 0.0
28/12:30am 6.2 3.7 5.0 92 0.5 S 7 11 4 6 1024.6 1025.0 0.0
28/12:00am 5.3 2.3 4.3 93 0.4 SSE 9 11 5 6 1024.5 1024.9 0.0
 
Date/Time
EST
Temp
°C
App
Temp
°C
Dew
Point
°C
Rel
Hum
%
Delta-T
°C
Wind Press
QNH
hPa
Press
MSL
hPa
Rain since
9am
mm
Dir  Spd
km/h
Gust
km/h
Spd
kts
Gust
kts
27/11:30pm 4.8 3.5 3.9 94 0.4 CALM 0 0 0 0 1024.6 1025.0 0.0
27/11:00pm 4.1 2.4 1.8 85 0.9 CALM 0 0 0 0 1024.8 1025.2 0.0
27/10:30pm 6.7 4.8 4.7 87 0.9 SSE 4 7 2 4 1024.7 1025.1 0.0
27/10:00pm 6.3 3.4 4.9 91 0.6 SW 9 11 5 6 1024.6 1025.0 0.0
27/09:30pm 6.6 2.9 4.3 85 1.0 SSW 13 17 7 9 1024.2 1024.6 0.0
27/09:00pm 6.5 2.7 4.0 84 1.1 SSW 13 15 7 8 1023.8 1024.2 0.0
27/08:30pm 7.4 3.7 4.7 83 1.2 SSW 13 15 7 8 1023.7 1024.1 0.0
27/08:00pm 8.4 4.9 5.5 82 1.3 SSW 13 19 7 10 1023.6 1023.9 0.0
27/07:30pm 7.7 4.9 5.0 83 1.2 SW 9 11 5 6 1023.0 1023.4 0.0
27/07:00pm 8.3 5.9 5.4 82 1.3 WSW 7 7 4 4 1022.7 1023.1 0.0
27/06:30pm 8.8 6.4 5.4 79 1.6 SW 7 7 4 4 1022.2 1022.6 0.0
27/06:00pm 9.5 7.3 5.5 76 1.8 WSW 6 6 3 3 1021.5 1021.9 0.0
27/05:30pm 10.4 6.9 5.4 71 2.3 WSW 13 17 7 9 1021.0 1021.4 0.0
27/05:00pm 11.9 6.6 5.1 63 3.2 SW 22 28 12 15 1020.7 1021.1 0.0
27/04:30pm 13.2 8.4 5.6 60 3.6 SW 20 26 11 14 1020.2 1020.5 0.0
27/04:00pm 13.5 8.0 5.7 59 3.7 WSW 24 32 13 17 1020.0 1020.3 0.0
27/03:30pm 13.1 8.4 6.2 63 3.3 WSW 20 30 11 16 1019.8 1020.1 0.0
27/03:00pm 13.3 6.7 5.9 61 3.5 WSW 30 39 16 21 1019.2 1019.6 0.0
27/02:30pm 13.5 7.5 5.2 57 3.9 SW 26 33 14 18 1019.0 1019.4 0.0
27/02:00pm 12.6 6.5 4.8 59 3.6 SW 26 33 14 18 1018.9 1019.3 0.0
27/01:30pm 14.1 8.0 4.7 53 4.4 WSW 26 35 14 19 1018.6 1019.0 0.0
27/01:00pm 13.3 6.9 5.2 58 3.8 SW 28 41 15 22 1018.7 1019.1 0.0
27/12:30pm 13.6 8.3 6.7 63 3.4 WSW 24 33 13 18 1018.8 1019.2 0.0
27/12:00pm 13.6 8.1 7.4 66 3.1 WSW 26 35 14 19 1018.9 1019.3 0.0
27/11:30am 12.9 7.6 6.9 67 2.9 WSW 24 33 13 18 1019.0 1019.4 0.0
27/11:00am 12.4 6.4 6.9 69 2.7 WSW 28 35 15 19 1018.9 1019.3 0.0
27/10:30am 12.1 7.4 7.8 75 2.1 W 22 30 12 16 1019.0 1019.4 0.0
27/10:00am 11.2 6.0 7.3 77 1.9 W 24 32 13 17 1018.9 1019.3 0.0
27/09:30am 10.6 6.2 7.3 80 1.6 WNW 20 26 11 14 1018.7 1019.1 0.0
27/09:00am 10.0 6.6 7.6 85 1.2 WNW 15 19 8 10 1018.5 1018.9 3.4
27/08:30am 9.2 5.7 7.2 87 1.0 WNW 15 22 8 12 1018.2 1018.6 3.4
27/08:00am 8.6 5.0 6.7 88 0.9 NW 15 22 8 12 1017.5 1017.8 3.4
27/07:30am 7.8 4.1 6.4 91 0.7 NW 15 19 8 10 1017.3 1017.6 3.4
27/07:00am 7.6 3.5 6.2 91 0.6 NW 17 20 9 11 1017.0 1017.3 3.4
27/06:30am 7.3 3.6 6.1 92 0.6 NW 15 17 8 9 1016.7 1017.0 3.4
27/06:00am 7.2 3.8 6.0 92 0.5 NNW 13 17 7 9 1016.4 1016.7 3.2
27/05:30am 7.9 4.6 6.4 90 0.7 NNW 13 17 7 9 1016.3 1016.6 3.2
27/05:00am 7.5 6.3 6.6 94 0.4 WNW 2 9 1 5 1016.3 1016.6 3.2
27/04:30am 7.1 5.0 6.0 93 0.5 N 6 7 3 4 1016.0 1016.3 2.8
27/04:00am 7.2 4.2 6.1 93 0.5 N 11 19 6 10 1016.0 1016.3 2.8
27/03:30am 9.1 5.7 7.5 90 0.8 NW 15 20 8 11 1016.1 1016.4 2.8
27/03:00am 9.1 6.5 7.9 92 0.6 SW 11 15 6 8 1016.5 1016.8 1.6
27/02:30am 9.2 6.5 7.3 88 0.9 WSW 11 15 6 8 1016.6 1016.9 0.8
27/02:00am 9.5 7.2 7.3 86 1.1 WNW 9 13 5 7 1016.5 1016.8 0.8
27/01:30am 9.9 6.0 7.3 84 1.3 NW 17 24 9 13 1016.7 1017.0 0.6
27/01:00am 9.7 6.3 7.5 86 1.1 NW 15 20 8 11 1016.7 1017.0 0.6
27/12:30am 9.5 5.7 7.4 87 1.0 NW 17 20 9 11 1017.0 1017.3 0.6
27/12:00am 9.3 5.8 7.4 88 0.9 NW 15 20 8 11 1017.2 1017.5 0.6
 
Date/Time
EST
Temp
°C
App
Temp
°C
Dew
Point
°C
Rel
Hum
%
Delta-T
°C
Wind Press
QNH
hPa
Press
MSL
hPa
Rain since
9am
mm
Dir  Spd
km/h
Gust
km/h
Spd
kts
Gust
kts
26/11:30pm 9.7 6.0 7.8 88 0.9 NW 17 22 9 12 1017.3 1017.6 0.6
26/11:00pm 10.1 7.2 8.2 88 0.9 WNW 13 17 7 9 1017.6 1017.9 0.6
26/10:30pm 10.4 7.9 8.2 86 1.1 NW 11 15 6 8 1017.6 1017.9 0.0
26/10:00pm 9.4 6.4 7.5 88 0.9 N 13 17 7 9 1017.5 1017.8 0.0
26/09:30pm 10.0 7.8 7.9 87 1.0 N 9 13 5 7 1017.5 1017.8 0.0
26/09:00pm 9.9 8.1 7.8 87 1.0 N 7 11 4 6 1017.5 1017.8 0.0
26/08:30pm 10.0 7.5 8.1 88 0.9 N 11 11 6 6 1017.4 1017.7 0.0

Other Formats:

Comma delimited format used in spreadsheet applications
http://www.bom.gov.au/fwo/IDN60801/IDN60801.95719.axf

JavaScript Object Notation format (JSON) in row-major order
http://www.bom.gov.au/fwo/IDN60801/IDN60801.95719.json